sensor_id;sensor_type;location;lat;lon;timestamp;temperature;humidity
12025;DHT22;6073;53.230;10.444;2023-12-07T00:00:17;0.90;99.90
12025;DHT22;6073;53.230;10.444;2023-12-07T00:02:43;0.80;99.90
12025;DHT22;6073;53.230;10.444;2023-12-07T00:05:08;0.80;99.90
12025;DHT22;6073;53.230;10.444;2023-12-07T00:07:33;0.90;99.90
12025;DHT22;6073;53.230;10.444;2023-12-07T00:09:59;0.80;99.90
12025;DHT22;6073;53.230;10.444;2023-12-07T00:12:24;0.90;99.90
12025;DHT22;6073;53.230;10.444;2023-12-07T00:14:50;0.80;99.90
12025;DHT22;6073;53.230;10.444;2023-12-07T00:17:15;0.80;99.90
12025;DHT22;6073;53.230;10.444;2023-12-07T00:19:41;0.80;99.90
12025;DHT22;6073;53.230;10.444;2023-12-07T00:22:06;0.80;99.90
12025;DHT22;6073;53.230;10.444;2023-12-07T00:24:32;0.80;99.90
12025;DHT22;6073;53.230;10.444;2023-12-07T00:26:58;0.80;99.90
12025;DHT22;6073;53.230;10.444;2023-12-07T00:29:23;0.80;99.90
12025;DHT22;6073;53.230;10.444;2023-12-07T00:31:49;0.80;99.90
12025;DHT22;6073;53.230;10.444;2023-12-07T00:34:14;0.80;99.90
12025;DHT22;6073;53.230;10.444;2023-12-07T00:36:39;0.80;99.90
12025;DHT22;6073;53.230;10.444;2023-12-07T00:39:06;0.80;99.90
12025;DHT22;6073;53.230;10.444;2023-12-07T00:41:32;0.80;99.90
12025;DHT22;6073;53.230;10.444;2023-12-07T00:43:57;0.80;99.90
12025;DHT22;6073;53.230;10.444;2023-12-07T00:46:23;0.80;99.90
12025;DHT22;6073;53.230;10.444;2023-12-07T00:48:48;0.80;99.90
12025;DHT22;6073;53.230;10.444;2023-12-07T00:51:14;0.80;99.90
12025;DHT22;6073;53.230;10.444;2023-12-07T00:53:41;0.80;99.90
12025;DHT22;6073;53.230;10.444;2023-12-07T00:56:07;0.80;99.90
12025;DHT22;6073;53.230;10.444;2023-12-07T00:58:32;0.80;99.90
12025;DHT22;6073;53.230;10.444;2023-12-07T01:00:58;0.80;99.90
12025;DHT22;6073;53.230;10.444;2023-12-07T01:03:23;0.90;99.90
12025;DHT22;6073;53.230;10.444;2023-12-07T01:05:49;0.80;99.90
12025;DHT22;6073;53.230;10.444;2023-12-07T01:08:14;0.80;99.90
12025;DHT22;6073;53.230;10.444;2023-12-07T01:10:40;0.80;99.90
12025;DHT22;6073;53.230;10.444;2023-12-07T01:13:05;0.80;99.90
12025;DHT22;6073;53.230;10.444;2023-12-07T01:15:31;0.80;99.90
12025;DHT22;6073;53.230;10.444;2023-12-07T01:17:56;0.90;99.90
12025;DHT22;6073;53.230;10.444;2023-12-07T01:20:22;0.90;99.90
12025;DHT22;6073;53.230;10.444;2023-12-07T01:22:47;0.90;99.90
12025;DHT22;6073;53.230;10.444;2023-12-07T01:25:13;0.90;99.90
12025;DHT22;6073;53.230;10.444;2023-12-07T01:27:45;0.90;99.90
12025;DHT22;6073;53.230;10.444;2023-12-07T01:30:10;0.90;99.90
12025;DHT22;6073;53.230;10.444;2023-12-07T01:32:36;0.90;99.90
12025;DHT22;6073;53.230;10.444;2023-12-07T01:35:01;0.90;99.90
12025;DHT22;6073;53.230;10.444;2023-12-07T01:37:27;0.90;99.90
12025;DHT22;6073;53.230;10.444;2023-12-07T01:39:54;0.90;99.90
12025;DHT22;6073;53.230;10.444;2023-12-07T01:42:20;0.80;99.90
12025;DHT22;6073;53.230;10.444;2023-12-07T01:44:45;0.90;99.90
12025;DHT22;6073;53.230;10.444;2023-12-07T01:47:11;0.80;99.90
12025;DHT22;6073;53.230;10.444;2023-12-07T01:49:37;0.90;99.90
12025;DHT22;6073;53.230;10.444;2023-12-07T01:52:04;0.90;99.90
12025;DHT22;6073;53.230;10.444;2023-12-07T01:54:30;0.90;99.90
12025;DHT22;6073;53.230;10.444;2023-12-07T01:56:56;0.90;99.90
12025;DHT22;6073;53.230;10.444;2023-12-07T01:59:23;0.90;99.90
12025;DHT22;6073;53.230;10.444;2023-12-07T02:01:48;0.90;99.90
12025;DHT22;6073;53.230;10.444;2023-12-07T02:04:14;0.90;99.90
12025;DHT22;6073;53.230;10.444;2023-12-07T02:06:40;0.90;99.90
12025;DHT22;6073;53.230;10.444;2023-12-07T02:09:05;0.90;99.90
12025;DHT22;6073;53.230;10.444;2023-12-07T02:11:31;0.90;99.90
12025;DHT22;6073;53.230;10.444;2023-12-07T02:13:56;0.90;99.90
12025;DHT22;6073;53.230;10.444;2023-12-07T02:17:24;0.90;99.90
12025;DHT22;6073;53.230;10.444;2023-12-07T02:19:52;0.90;99.90
12025;DHT22;6073;53.230;10.444;2023-12-07T02:22:26;0.90;99.90
12025;DHT22;6073;53.230;10.444;2023-12-07T02:25:06;0.90;99.90
12025;DHT22;6073;53.230;10.444;2023-12-07T02:27:40;0.90;99.90
12025;DHT22;6073;53.230;10.444;2023-12-07T02:30:08;0.90;99.90
12025;DHT22;6073;53.230;10.444;2023-12-07T02:32:35;0.90;99.90
12025;DHT22;6073;53.230;10.444;2023-12-07T02:35:01;0.90;99.90
12025;DHT22;6073;53.230;10.444;2023-12-07T02:37:28;0.90;99.90
12025;DHT22;6073;53.230;10.444;2023-12-07T02:39:56;0.90;99.90
12025;DHT22;6073;53.230;10.444;2023-12-07T02:42:22;0.90;99.90
12025;DHT22;6073;53.230;10.444;2023-12-07T02:44:51;0.90;99.90
12025;DHT22;6073;53.230;10.444;2023-12-07T02:47:17;0.90;99.90
12025;DHT22;6073;53.230;10.444;2023-12-07T02:49:42;0.90;99.90
12025;DHT22;6073;53.230;10.444;2023-12-07T02:52:08;0.90;99.90
12025;DHT22;6073;53.230;10.444;2023-12-07T02:54:34;0.90;99.90
12025;DHT22;6073;53.230;10.444;2023-12-07T02:56:59;0.90;99.90
12025;DHT22;6073;53.230;10.444;2023-12-07T02:59:25;0.90;99.90
12025;DHT22;6073;53.230;10.444;2023-12-07T03:01:50;0.90;99.90
12025;DHT22;6073;53.230;10.444;2023-12-07T03:04:16;0.90;99.90
12025;DHT22;6073;53.230;10.444;2023-12-07T03:06:41;0.90;99.90
12025;DHT22;6073;53.230;10.444;2023-12-07T03:09:07;0.90;99.90
12025;DHT22;6073;53.230;10.444;2023-12-07T03:11:32;0.90;99.90
12025;DHT22;6073;53.230;10.444;2023-12-07T03:13:58;0.90;99.90
12025;DHT22;6073;53.230;10.444;2023-12-07T03:16:23;0.90;99.90
12025;DHT22;6073;53.230;10.444;2023-12-07T03:18:49;0.90;99.90
12025;DHT22;6073;53.230;10.444;2023-12-07T03:21:14;0.90;99.90
12025;DHT22;6073;53.230;10.444;2023-12-07T03:23:40;0.90;99.90
12025;DHT22;6073;53.230;10.444;2023-12-07T03:26:05;0.90;99.90
12025;DHT22;6073;53.230;10.444;2023-12-07T03:28:31;0.90;99.90
12025;DHT22;6073;53.230;10.444;2023-12-07T03:30:56;0.90;99.90
12025;DHT22;6073;53.230;10.444;2023-12-07T03:33:22;0.90;99.90
12025;DHT22;6073;53.230;10.444;2023-12-07T03:35:47;0.90;99.90
12025;DHT22;6073;53.230;10.444;2023-12-07T03:38:14;0.90;99.90
12025;DHT22;6073;53.230;10.444;2023-12-07T03:40:39;0.90;99.90
12025;DHT22;6073;53.230;10.444;2023-12-07T03:43:05;0.90;99.90
12025;DHT22;6073;53.230;10.444;2023-12-07T03:45:30;0.90;99.90
12025;DHT22;6073;53.230;10.444;2023-12-07T03:47:56;0.90;99.90
12025;DHT22;6073;53.230;10.444;2023-12-07T03:50:22;0.90;99.90
12025;DHT22;6073;53.230;10.444;2023-12-07T03:52:47;0.90;99.90
12025;DHT22;6073;53.230;10.444;2023-12-07T03:55:13;0.90;99.90
12025;DHT22;6073;53.230;10.444;2023-12-07T03:57:38;0.90;99.90
12025;DHT22;6073;53.230;10.444;2023-12-07T04:00:07;0.90;99.90
12025;DHT22;6073;53.230;10.444;2023-12-07T04:02:33;0.90;99.90
12025;DHT22;6073;53.230;10.444;2023-12-07T04:04:59;0.90;99.90
12025;DHT22;6073;53.230;10.444;2023-12-07T04:07:28;0.90;99.90
12025;DHT22;6073;53.230;10.444;2023-12-07T04:09:54;0.90;99.90
12025;DHT22;6073;53.230;10.444;2023-12-07T04:12:19;0.90;99.90
12025;DHT22;6073;53.230;10.444;2023-12-07T04:14:45;1.00;99.90
12025;DHT22;6073;53.230;10.444;2023-12-07T04:17:10;1.00;99.90
12025;DHT22;6073;53.230;10.444;2023-12-07T04:19:36;0.90;99.90
12025;DHT22;6073;53.230;10.444;2023-12-07T04:22:01;1.00;99.90
12025;DHT22;6073;53.230;10.444;2023-12-07T04:24:27;1.00;99.90
12025;DHT22;6073;53.230;10.444;2023-12-07T04:26:53;1.00;99.90
12025;DHT22;6073;53.230;10.444;2023-12-07T04:29:18;1.00;99.90
12025;DHT22;6073;53.230;10.444;2023-12-07T04:31:44;1.00;99.90
12025;DHT22;6073;53.230;10.444;2023-12-07T04:34:09;1.00;99.90
12025;DHT22;6073;53.230;10.444;2023-12-07T04:36:35;1.00;99.90
12025;DHT22;6073;53.230;10.444;2023-12-07T04:39:00;1.00;99.90
12025;DHT22;6073;53.230;10.444;2023-12-07T04:41:26;1.00;99.90
12025;DHT22;6073;53.230;10.444;2023-12-07T04:43:51;1.00;99.90
12025;DHT22;6073;53.230;10.444;2023-12-07T04:46:17;1.00;99.90
12025;DHT22;6073;53.230;10.444;2023-12-07T04:48:42;1.00;99.90
12025;DHT22;6073;53.230;10.444;2023-12-07T04:51:08;1.00;99.90
12025;DHT22;6073;53.230;10.444;2023-12-07T04:53:33;1.00;99.90
12025;DHT22;6073;53.230;10.444;2023-12-07T04:55:59;1.00;99.90
12025;DHT22;6073;53.230;10.444;2023-12-07T04:58:25;1.00;99.90
12025;DHT22;6073;53.230;10.444;2023-12-07T05:00:50;1.00;99.90
12025;DHT22;6073;53.230;10.444;2023-12-07T05:03:16;0.90;99.90
12025;DHT22;6073;53.230;10.444;2023-12-07T05:05:41;1.00;99.90
12025;DHT22;6073;53.230;10.444;2023-12-07T05:08:07;1.00;99.90
12025;DHT22;6073;53.230;10.444;2023-12-07T05:10:33;1.00;99.90
12025;DHT22;6073;53.230;10.444;2023-12-07T05:12:58;1.00;99.90
12025;DHT22;6073;53.230;10.444;2023-12-07T05:15:24;1.00;99.90
12025;DHT22;6073;53.230;10.444;2023-12-07T05:17:50;1.00;99.90
12025;DHT22;6073;53.230;10.444;2023-12-07T05:20:15;1.00;99.90
12025;DHT22;6073;53.230;10.444;2023-12-07T05:22:41;1.00;99.90
12025;DHT22;6073;53.230;10.444;2023-12-07T05:25:07;1.00;99.90
12025;DHT22;6073;53.230;10.444;2023-12-07T05:27:32;1.00;99.90
12025;DHT22;6073;53.230;10.444;2023-12-07T05:29:58;1.10;99.90
12025;DHT22;6073;53.230;10.444;2023-12-07T05:32:23;1.10;99.90
12025;DHT22;6073;53.230;10.444;2023-12-07T05:34:49;1.10;99.90
12025;DHT22;6073;53.230;10.444;2023-12-07T05:37:15;1.00;99.90
12025;DHT22;6073;53.230;10.444;2023-12-07T05:39:41;1.00;99.90
12025;DHT22;6073;53.230;10.444;2023-12-07T05:42:06;1.10;99.90
12025;DHT22;6073;53.230;10.444;2023-12-07T05:44:32;1.00;99.90
12025;DHT22;6073;53.230;10.444;2023-12-07T05:46:57;1.00;99.90
12025;DHT22;6073;53.230;10.444;2023-12-07T05:49:23;1.00;99.90
12025;DHT22;6073;53.230;10.444;2023-12-07T05:51:49;1.00;99.90
12025;DHT22;6073;53.230;10.444;2023-12-07T05:54:14;1.10;99.90
12025;DHT22;6073;53.230;10.444;2023-12-07T05:56:40;1.00;99.90
12025;DHT22;6073;53.230;10.444;2023-12-07T05:59:06;1.10;99.90
12025;DHT22;6073;53.230;10.444;2023-12-07T06:01:32;1.10;99.90
12025;DHT22;6073;53.230;10.444;2023-12-07T06:03:58;1.10;99.90
12025;DHT22;6073;53.230;10.444;2023-12-07T06:06:23;1.10;99.90
12025;DHT22;6073;53.230;10.444;2023-12-07T06:08:49;1.10;99.90
12025;DHT22;6073;53.230;10.444;2023-12-07T06:11:14;1.10;99.90
12025;DHT22;6073;53.230;10.444;2023-12-07T06:13:40;1.20;99.90
12025;DHT22;6073;53.230;10.444;2023-12-07T06:16:06;1.10;99.90
12025;DHT22;6073;53.230;10.444;2023-12-07T06:18:32;1.20;99.90
12025;DHT22;6073;53.230;10.444;2023-12-07T06:20:57;1.10;99.90
12025;DHT22;6073;53.230;10.444;2023-12-07T06:23:23;1.10;99.90
12025;DHT22;6073;53.230;10.444;2023-12-07T06:25:48;1.20;99.90
12025;DHT22;6073;53.230;10.444;2023-12-07T06:28:14;1.20;99.90
12025;DHT22;6073;53.230;10.444;2023-12-07T06:30:40;1.10;99.90
12025;DHT22;6073;53.230;10.444;2023-12-07T06:33:05;1.10;99.90
12025;DHT22;6073;53.230;10.444;2023-12-07T06:35:31;1.10;99.90
12025;DHT22;6073;53.230;10.444;2023-12-07T06:37:56;1.10;99.90
12025;DHT22;6073;53.230;10.444;2023-12-07T06:40:22;1.10;99.90
12025;DHT22;6073;53.230;10.444;2023-12-07T06:42:48;1.10;99.90
12025;DHT22;6073;53.230;10.444;2023-12-07T06:45:13;1.10;99.90
12025;DHT22;6073;53.230;10.444;2023-12-07T06:47:42;1.10;99.90
12025;DHT22;6073;53.230;10.444;2023-12-07T06:50:09;1.10;99.90
12025;DHT22;6073;53.230;10.444;2023-12-07T06:52:37;1.10;99.90
12025;DHT22;6073;53.230;10.444;2023-12-07T06:55:03;1.10;99.90
12025;DHT22;6073;53.230;10.444;2023-12-07T06:57:29;1.10;99.90
12025;DHT22;6073;53.230;10.444;2023-12-07T06:59:54;1.10;99.90
12025;DHT22;6073;53.230;10.444;2023-12-07T07:02:20;1.10;99.90
12025;DHT22;6073;53.230;10.444;2023-12-07T07:04:46;1.10;99.90
12025;DHT22;6073;53.230;10.444;2023-12-07T07:07:14;1.10;99.90
12025;DHT22;6073;53.230;10.444;2023-12-07T07:09:40;1.10;99.90
12025;DHT22;6073;53.230;10.444;2023-12-07T07:12:05;1.10;99.90
12025;DHT22;6073;53.230;10.444;2023-12-07T07:14:31;1.10;99.90
12025;DHT22;6073;53.230;10.444;2023-12-07T07:16:56;1.10;99.90
12025;DHT22;6073;53.230;10.444;2023-12-07T07:19:22;1.10;99.90
12025;DHT22;6073;53.230;10.444;2023-12-07T07:21:47;1.10;99.90
12025;DHT22;6073;53.230;10.444;2023-12-07T07:24:14;1.30;99.90
12025;DHT22;6073;53.230;10.444;2023-12-07T07:26:40;1.20;99.90
12025;DHT22;6073;53.230;10.444;2023-12-07T07:29:05;1.20;99.90
12025;DHT22;6073;53.230;10.444;2023-12-07T07:31:31;1.10;99.90
12025;DHT22;6073;53.230;10.444;2023-12-07T07:33:57;1.10;99.90
12025;DHT22;6073;53.230;10.444;2023-12-07T07:36:22;1.10;99.90
12025;DHT22;6073;53.230;10.444;2023-12-07T07:38:48;1.10;99.90
12025;DHT22;6073;53.230;10.444;2023-12-07T07:41:14;1.10;99.90
12025;DHT22;6073;53.230;10.444;2023-12-07T07:43:39;1.10;99.90
12025;DHT22;6073;53.230;10.444;2023-12-07T07:46:06;1.10;99.90
12025;DHT22;6073;53.230;10.444;2023-12-07T07:48:32;1.10;99.90
12025;DHT22;6073;53.230;10.444;2023-12-07T07:50:57;1.10;99.90
12025;DHT22;6073;53.230;10.444;2023-12-07T07:53:24;1.20;99.90
12025;DHT22;6073;53.230;10.444;2023-12-07T07:55:49;1.20;99.90
12025;DHT22;6073;53.230;10.444;2023-12-07T07:58:15;1.20;99.90
12025;DHT22;6073;53.230;10.444;2023-12-07T08:00:40;1.20;99.90
12025;DHT22;6073;53.230;10.444;2023-12-07T08:03:06;1.20;99.90
12025;DHT22;6073;53.230;10.444;2023-12-07T08:05:32;1.20;99.90
12025;DHT22;6073;53.230;10.444;2023-12-07T08:07:58;1.20;99.90
12025;DHT22;6073;53.230;10.444;2023-12-07T08:10:24;1.20;99.90
12025;DHT22;6073;53.230;10.444;2023-12-07T08:12:49;1.20;99.90
12025;DHT22;6073;53.230;10.444;2023-12-07T08:15:15;1.20;99.90
12025;DHT22;6073;53.230;10.444;2023-12-07T08:17:41;1.20;99.90
12025;DHT22;6073;53.230;10.444;2023-12-07T08:20:08;1.20;99.90
12025;DHT22;6073;53.230;10.444;2023-12-07T08:22:36;1.20;99.90
12025;DHT22;6073;53.230;10.444;2023-12-07T08:25:02;1.30;99.90
12025;DHT22;6073;53.230;10.444;2023-12-07T08:27:28;1.30;99.90
12025;DHT22;6073;53.230;10.444;2023-12-07T08:29:53;1.30;99.90
12025;DHT22;6073;53.230;10.444;2023-12-07T08:32:19;1.30;99.90
12025;DHT22;6073;53.230;10.444;2023-12-07T08:34:45;1.30;99.90
12025;DHT22;6073;53.230;10.444;2023-12-07T08:37:10;1.40;99.90
12025;DHT22;6073;53.230;10.444;2023-12-07T08:39:36;1.40;99.90
12025;DHT22;6073;53.230;10.444;2023-12-07T08:42:01;1.50;99.90
12025;DHT22;6073;53.230;10.444;2023-12-07T08:44:27;1.50;99.90
12025;DHT22;6073;53.230;10.444;2023-12-07T08:46:52;1.50;99.90
12025;DHT22;6073;53.230;10.444;2023-12-07T08:49:18;1.60;99.90
12025;DHT22;6073;53.230;10.444;2023-12-07T08:51:43;1.60;99.90
12025;DHT22;6073;53.230;10.444;2023-12-07T08:54:10;1.60;99.90
12025;DHT22;6073;53.230;10.444;2023-12-07T08:56:36;1.60;99.90
12025;DHT22;6073;53.230;10.444;2023-12-07T08:59:02;1.60;99.90
12025;DHT22;6073;53.230;10.444;2023-12-07T09:01:27;1.70;99.90
12025;DHT22;6073;53.230;10.444;2023-12-07T09:03:53;1.70;99.90
12025;DHT22;6073;53.230;10.444;2023-12-07T09:06:18;1.70;99.90
12025;DHT22;6073;53.230;10.444;2023-12-07T09:08:44;1.70;99.90
12025;DHT22;6073;53.230;10.444;2023-12-07T09:11:10;1.70;99.90
12025;DHT22;6073;53.230;10.444;2023-12-07T09:13:37;1.80;99.90
12025;DHT22;6073;53.230;10.444;2023-12-07T09:16:02;1.80;99.90
12025;DHT22;6073;53.230;10.444;2023-12-07T09:18:29;1.80;99.90
12025;DHT22;6073;53.230;10.444;2023-12-07T09:20:54;1.90;99.90
12025;DHT22;6073;53.230;10.444;2023-12-07T09:23:20;1.90;99.90
12025;DHT22;6073;53.230;10.444;2023-12-07T09:25:45;1.90;99.90
12025;DHT22;6073;53.230;10.444;2023-12-07T09:28:11;1.90;99.90
12025;DHT22;6073;53.230;10.444;2023-12-07T09:30:37;1.90;99.90
12025;DHT22;6073;53.230;10.444;2023-12-07T09:33:02;2.00;99.90
12025;DHT22;6073;53.230;10.444;2023-12-07T09:35:28;2.00;99.90
12025;DHT22;6073;53.230;10.444;2023-12-07T09:37:54;2.00;99.90
12025;DHT22;6073;53.230;10.444;2023-12-07T09:40:21;2.10;99.90
12025;DHT22;6073;53.230;10.444;2023-12-07T09:42:47;2.10;99.90
12025;DHT22;6073;53.230;10.444;2023-12-07T09:45:14;2.10;99.90
12025;DHT22;6073;53.230;10.444;2023-12-07T09:47:41;2.00;99.90
12025;DHT22;6073;53.230;10.444;2023-12-07T09:50:08;2.10;99.90
12025;DHT22;6073;53.230;10.444;2023-12-07T09:52:37;2.20;99.90
12025;DHT22;6073;53.230;10.444;2023-12-07T09:55:03;2.30;99.90
12025;DHT22;6073;53.230;10.444;2023-12-07T09:57:29;2.30;99.90
12025;DHT22;6073;53.230;10.444;2023-12-07T09:59:55;2.20;99.90
12025;DHT22;6073;53.230;10.444;2023-12-07T10:02:21;2.20;99.90
12025;DHT22;6073;53.230;10.444;2023-12-07T10:04:47;2.20;99.90
12025;DHT22;6073;53.230;10.444;2023-12-07T10:07:13;2.20;99.90
12025;DHT22;6073;53.230;10.444;2023-12-07T10:09:39;2.20;99.90
12025;DHT22;6073;53.230;10.444;2023-12-07T10:12:08;2.20;99.90
12025;DHT22;6073;53.230;10.444;2023-12-07T10:14:34;2.20;99.90
12025;DHT22;6073;53.230;10.444;2023-12-07T10:17:00;2.20;99.90
12025;DHT22;6073;53.230;10.444;2023-12-07T10:19:26;2.20;99.90
12025;DHT22;6073;53.230;10.444;2023-12-07T10:21:53;2.20;99.90
12025;DHT22;6073;53.230;10.444;2023-12-07T10:24:24;2.30;99.90
12025;DHT22;6073;53.230;10.444;2023-12-07T10:26:51;2.30;99.90
12025;DHT22;6073;53.230;10.444;2023-12-07T10:29:17;2.40;99.90
12025;DHT22;6073;53.230;10.444;2023-12-07T10:31:44;2.40;99.90
12025;DHT22;6073;53.230;10.444;2023-12-07T10:34:12;2.40;99.90
12025;DHT22;6073;53.230;10.444;2023-12-07T10:36:38;2.50;99.90
12025;DHT22;6073;53.230;10.444;2023-12-07T10:39:03;2.40;99.90
12025;DHT22;6073;53.230;10.444;2023-12-07T13:44:48;2.30;99.90
12025;DHT22;6073;53.230;10.444;2023-12-07T13:47:17;2.40;99.90
12025;DHT22;6073;53.230;10.444;2023-12-07T13:49:43;2.40;99.90
12025;DHT22;6073;53.230;10.444;2023-12-07T13:52:08;2.40;99.90
12025;DHT22;6073;53.230;10.444;2023-12-07T13:54:35;2.40;99.90
12025;DHT22;6073;53.230;10.444;2023-12-07T13:57:01;2.30;99.90
12025;DHT22;6073;53.230;10.444;2023-12-07T13:59:28;2.30;99.90
12025;DHT22;6073;53.230;10.444;2023-12-07T14:01:54;2.20;99.90
12025;DHT22;6073;53.230;10.444;2023-12-07T14:04:20;2.20;99.90
12025;DHT22;6073;53.230;10.444;2023-12-07T14:06:46;2.30;99.90
12025;DHT22;6073;53.230;10.444;2023-12-07T14:09:12;2.20;99.90
12025;DHT22;6073;53.230;10.444;2023-12-07T14:11:37;2.20;99.90
12025;DHT22;6073;53.230;10.444;2023-12-07T14:14:04;2.20;99.90
12025;DHT22;6073;53.230;10.444;2023-12-07T14:16:30;2.20;99.90
12025;DHT22;6073;53.230;10.444;2023-12-07T14:18:55;2.20;99.90
12025;DHT22;6073;53.230;10.444;2023-12-07T14:21:21;2.20;99.90
12025;DHT22;6073;53.230;10.444;2023-12-07T14:23:47;2.10;99.90
12025;DHT22;6073;53.230;10.444;2023-12-07T14:26:12;2.10;99.90
12025;DHT22;6073;53.230;10.444;2023-12-07T14:28:38;2.10;99.90
12025;DHT22;6073;53.230;10.444;2023-12-07T14:31:04;2.10;99.90
12025;DHT22;6073;53.230;10.444;2023-12-07T14:33:29;2.20;99.90
12025;DHT22;6073;53.230;10.444;2023-12-07T14:35:55;2.10;99.90
12025;DHT22;6073;53.230;10.444;2023-12-07T14:38:21;2.10;99.90
12025;DHT22;6073;53.230;10.444;2023-12-07T14:40:46;2.10;99.90
12025;DHT22;6073;53.230;10.444;2023-12-07T14:43:12;2.10;99.90
12025;DHT22;6073;53.230;10.444;2023-12-07T14:45:37;2.20;99.90
12025;DHT22;6073;53.230;10.444;2023-12-07T14:48:03;2.10;99.90
12025;DHT22;6073;53.230;10.444;2023-12-07T14:50:28;2.10;99.90
12025;DHT22;6073;53.230;10.444;2023-12-07T14:52:54;2.10;99.90
12025;DHT22;6073;53.230;10.444;2023-12-07T14:55:19;2.00;99.90
12025;DHT22;6073;53.230;10.444;2023-12-07T14:57:45;2.00;99.90
12025;DHT22;6073;53.230;10.444;2023-12-07T15:00:11;2.00;99.90
12025;DHT22;6073;53.230;10.444;2023-12-07T15:02:37;1.90;99.90
12025;DHT22;6073;53.230;10.444;2023-12-07T15:05:03;2.00;99.90
12025;DHT22;6073;53.230;10.444;2023-12-07T15:07:29;2.00;99.90
12025;DHT22;6073;53.230;10.444;2023-12-07T15:09:55;2.00;99.90
12025;DHT22;6073;53.230;10.444;2023-12-07T15:12:20;2.00;99.90
12025;DHT22;6073;53.230;10.444;2023-12-07T15:14:46;2.00;99.90
12025;DHT22;6073;53.230;10.444;2023-12-07T15:17:12;2.00;99.90
12025;DHT22;6073;53.230;10.444;2023-12-07T15:19:38;1.90;99.90
12025;DHT22;6073;53.230;10.444;2023-12-07T15:22:03;1.90;99.90
12025;DHT22;6073;53.230;10.444;2023-12-07T15:24:30;1.90;99.90
12025;DHT22;6073;53.230;10.444;2023-12-07T15:26:55;1.90;99.90
12025;DHT22;6073;53.230;10.444;2023-12-07T15:29:21;1.90;99.90
12025;DHT22;6073;53.230;10.444;2023-12-07T15:31:46;1.90;99.90
12025;DHT22;6073;53.230;10.444;2023-12-07T15:34:12;1.90;99.90
12025;DHT22;6073;53.230;10.444;2023-12-07T15:36:37;1.90;99.90
12025;DHT22;6073;53.230;10.444;2023-12-07T15:39:03;1.90;99.90
12025;DHT22;6073;53.230;10.444;2023-12-07T15:41:29;1.90;99.90
12025;DHT22;6073;53.230;10.444;2023-12-07T15:43:54;1.90;99.90
12025;DHT22;6073;53.230;10.444;2023-12-07T15:46:20;1.90;99.90
12025;DHT22;6073;53.230;10.444;2023-12-07T15:48:46;1.80;99.90
12025;DHT22;6073;53.230;10.444;2023-12-07T15:51:12;1.80;99.90
12025;DHT22;6073;53.230;10.444;2023-12-07T15:53:37;1.80;99.90
12025;DHT22;6073;53.230;10.444;2023-12-07T15:56:04;1.90;99.90
12025;DHT22;6073;53.230;10.444;2023-12-07T15:58:30;1.90;99.90
12025;DHT22;6073;53.230;10.444;2023-12-07T16:00:55;1.90;99.90
12025;DHT22;6073;53.230;10.444;2023-12-07T16:03:21;1.80;99.90
12025;DHT22;6073;53.230;10.444;2023-12-07T16:05:46;1.80;99.90
12025;DHT22;6073;53.230;10.444;2023-12-07T16:08:12;1.90;99.90
12025;DHT22;6073;53.230;10.444;2023-12-07T16:10:38;1.90;99.90
12025;DHT22;6073;53.230;10.444;2023-12-07T16:13:03;1.80;99.90
12025;DHT22;6073;53.230;10.444;2023-12-07T16:15:29;1.80;99.90
12025;DHT22;6073;53.230;10.444;2023-12-07T16:17:55;1.80;99.90
12025;DHT22;6073;53.230;10.444;2023-12-07T16:20:20;1.80;99.90
12025;DHT22;6073;53.230;10.444;2023-12-07T16:22:46;1.80;99.90
12025;DHT22;6073;53.230;10.444;2023-12-07T16:25:12;1.80;99.90
12025;DHT22;6073;53.230;10.444;2023-12-07T16:27:38;1.90;99.90
12025;DHT22;6073;53.230;10.444;2023-12-07T16:30:04;1.90;99.90
12025;DHT22;6073;53.230;10.444;2023-12-07T16:32:32;1.80;99.90
12025;DHT22;6073;53.230;10.444;2023-12-07T16:34:57;1.80;99.90
12025;DHT22;6073;53.230;10.444;2023-12-07T16:37:24;1.80;99.90
12025;DHT22;6073;53.230;10.444;2023-12-07T16:39:50;1.80;99.90
12025;DHT22;6073;53.230;10.444;2023-12-07T16:42:16;1.80;99.90
12025;DHT22;6073;53.230;10.444;2023-12-07T16:44:41;1.80;99.90
12025;DHT22;6073;53.230;10.444;2023-12-07T16:47:09;1.80;99.90
12025;DHT22;6073;53.230;10.444;2023-12-07T16:49:35;1.80;99.90
12025;DHT22;6073;53.230;10.444;2023-12-07T16:52:00;1.80;99.90
12025;DHT22;6073;53.230;10.444;2023-12-07T16:54:28;1.80;99.90
12025;DHT22;6073;53.230;10.444;2023-12-07T16:56:53;1.90;99.90
12025;DHT22;6073;53.230;10.444;2023-12-07T16:59:19;1.80;99.90
12025;DHT22;6073;53.230;10.444;2023-12-07T17:01:45;1.90;99.90
12025;DHT22;6073;53.230;10.444;2023-12-07T17:04:10;1.90;99.90
12025;DHT22;6073;53.230;10.444;2023-12-07T17:06:36;1.90;99.90
12025;DHT22;6073;53.230;10.444;2023-12-07T17:09:02;1.80;99.90
12025;DHT22;6073;53.230;10.444;2023-12-07T17:11:29;1.80;99.90
12025;DHT22;6073;53.230;10.444;2023-12-07T17:13:55;1.80;99.90
12025;DHT22;6073;53.230;10.444;2023-12-07T17:16:21;1.80;99.90
12025;DHT22;6073;53.230;10.444;2023-12-07T17:18:47;1.80;99.90
12025;DHT22;6073;53.230;10.444;2023-12-07T17:21:12;1.80;99.90
12025;DHT22;6073;53.230;10.444;2023-12-07T17:23:38;1.80;99.90
12025;DHT22;6073;53.230;10.444;2023-12-07T17:26:04;1.80;99.90
12025;DHT22;6073;53.230;10.444;2023-12-07T17:28:29;1.80;99.90
12025;DHT22;6073;53.230;10.444;2023-12-07T17:30:55;1.80;99.90
12025;DHT22;6073;53.230;10.444;2023-12-07T17:33:21;1.80;99.90
12025;DHT22;6073;53.230;10.444;2023-12-07T17:35:46;1.80;99.90
12025;DHT22;6073;53.230;10.444;2023-12-07T17:38:12;1.80;99.90
12025;DHT22;6073;53.230;10.444;2023-12-07T17:40:37;1.80;99.90
12025;DHT22;6073;53.230;10.444;2023-12-07T17:43:03;1.80;99.90
12025;DHT22;6073;53.230;10.444;2023-12-07T17:45:29;1.70;99.90
12025;DHT22;6073;53.230;10.444;2023-12-07T17:47:54;1.70;99.90
12025;DHT22;6073;53.230;10.444;2023-12-07T17:50:20;1.80;99.90
12025;DHT22;6073;53.230;10.444;2023-12-07T17:52:46;1.80;99.90
12025;DHT22;6073;53.230;10.444;2023-12-07T17:55:12;1.80;99.90
12025;DHT22;6073;53.230;10.444;2023-12-07T17:57:37;1.80;99.90
12025;DHT22;6073;53.230;10.444;2023-12-07T18:00:03;1.80;99.90
12025;DHT22;6073;53.230;10.444;2023-12-07T18:02:30;1.80;99.90
12025;DHT22;6073;53.230;10.444;2023-12-07T18:04:56;1.80;99.90
12025;DHT22;6073;53.230;10.444;2023-12-07T18:07:21;1.90;99.90
12025;DHT22;6073;53.230;10.444;2023-12-07T18:09:48;1.80;99.90
12025;DHT22;6073;53.230;10.444;2023-12-07T18:12:13;1.80;99.90
12025;DHT22;6073;53.230;10.444;2023-12-07T18:14:39;1.70;99.90
12025;DHT22;6073;53.230;10.444;2023-12-07T18:17:05;1.70;99.90
12025;DHT22;6073;53.230;10.444;2023-12-07T18:19:31;1.80;99.90
12025;DHT22;6073;53.230;10.444;2023-12-07T18:21:57;1.70;99.90
12025;DHT22;6073;53.230;10.444;2023-12-07T18:24:23;1.70;99.90
12025;DHT22;6073;53.230;10.444;2023-12-07T18:26:49;1.70;99.90
12025;DHT22;6073;53.230;10.444;2023-12-07T18:29:14;1.60;99.90
12025;DHT22;6073;53.230;10.444;2023-12-07T18:31:40;1.70;99.90
12025;DHT22;6073;53.230;10.444;2023-12-07T18:34:05;1.70;99.90
12025;DHT22;6073;53.230;10.444;2023-12-07T18:36:31;1.70;99.90
12025;DHT22;6073;53.230;10.444;2023-12-07T18:38:56;1.70;99.90